Time;durP1;ratioP1;P1;durP2;ratioP2;P2;SDS_P1;SDS_P2;PMS_P1;PMS_P2;Temp;Humidity;BMP_temperature;BMP_pressure;BME280_temperature;BME280_humidity;BME280_pressure;Samples;Min_cycle;Max_cycle;Signal;HPM_P1;HPM_P2
2022/01/26 00:05:47;;;;;;;22.07;13.83;;;5.10;99.90;;;;;;634782;226;26614;-71
2022/01/26 00:06:06;;;;;;;23.67;14.93;;;5.30;99.90;;;;;;635142;226;26544;-71
2022/01/26 00:08:28;;;;;;;26.50;15.97;;;5.20;99.90;;;;;;634689;226;26540;-71
2022/01/26 00:10:56;;;;;;;25.17;15.37;;;5.10;99.90;;;;;;635149;226;26595;-71
2022/01/26 00:13:24;;;;;;;27.93;15.60;;;5.20;99.90;;;;;;635170;226;26536;-71
2022/01/26 00:15:52;;;;;;;23.50;14.27;;;5.10;99.90;;;;;;635138;226;26528;-71
2022/01/26 00:18:21;;;;;;;29.57;16.50;;;5.30;99.90;;;;;;635138;226;26586;-71
2022/01/26 00:20:54;;;;;;;26.17;15.57;;;5.10;99.90;;;;;;634966;225;26812;-71
2022/01/26 00:26:06;;;;;;;27.80;15.77;;;5.00;99.90;;;;;;635171;226;26540;-71
2022/01/26 00:28:35;;;;;;;27.57;15.70;;;4.90;99.90;;;;;;636020;224;26904;-71
2022/01/26 00:38:43;;;;;;;28.07;16.53;;;5.00;99.90;;;;;;635813;226;26861;-73
2022/01/26 00:41:12;;;;;;;29.67;16.57;;;5.00;99.90;;;;;;635898;226;26639;-73
2022/01/26 00:43:36;;;;;;;27.23;15.23;;;5.00;99.90;;;;;;635752;226;26562;-73
2022/01/26 00:46:05;;;;;;;29.53;16.80;;;5.00;99.90;;;;;;635639;226;26777;-73
2022/01/26 00:48:32;;;;;;;30.53;16.67;;;5.30;99.90;;;;;;635417;226;26537;-73
2022/01/26 00:51:00;;;;;;;28.27;15.90;;;5.10;99.90;;;;;;635543;226;27177;-73
2022/01/26 00:53:30;;;;;;;28.70;16.67;;;5.30;99.90;;;;;;635366;226;26602;-73
2022/01/26 00:55:52;;;;;;;26.30;15.27;;;5.40;99.90;;;;;;635461;226;26792;-73
2022/01/26 00:58:19;;;;;;;29.47;17.47;;;5.20;99.90;;;;;;635500;226;26557;-73
2022/01/26 01:00:46;;;;;;;29.03;16.53;;;5.30;99.90;;;;;;635559;226;26537;-73
2022/01/26 01:03:14;;;;;;;29.97;16.80;;;5.30;99.90;;;;;;635456;226;26590;-73
2022/01/26 01:05:52;;;;;;;28.30;16.23;;;5.10;99.90;;;;;;635157;226;26524;-73
2022/01/26 01:08:16;;;;;;;27.87;15.73;;;4.90;99.90;;;;;;635134;226;26536;-73
2022/01/26 01:10:40;;;;;;;26.10;15.03;;;4.80;99.90;;;;;;635095;226;26596;-73
2022/01/26 01:13:13;;;;;;;26.63;15.37;;;4.80;99.90;;;;;;635241;226;26524;-73
2022/01/26 01:15:34;;;;;;;25.93;14.20;;;4.80;99.90;;;;;;635296;226;26561;-73
2022/01/26 01:18:10;;;;;;;28.97;15.63;;;4.60;99.90;;;;;;635241;226;26535;-73
2022/01/26 01:21:06;;;;;;;30.83;15.63;;;4.60;99.90;;;;;;634646;226;26789;-73
2022/01/26 01:23:47;;;;;;;30.13;15.43;;;4.80;99.90;;;;;;633621;226;26591;-73
2022/01/26 01:28:24;;;;;;;30.83;17.00;;;4.60;99.90;;;;;;635177;226;26821;-73
2022/01/26 01:30:47;;;;;;;30.77;14.67;;;4.60;99.90;;;;;;634538;226;26583;-73
2022/01/26 01:33:21;;;;;;;27.03;14.43;;;4.50;99.90;;;;;;635169;226;26580;-73
2022/01/26 01:35:40;;;;;;;27.87;15.83;;;4.50;99.90;;;;;;635210;226;26584;-73
2022/01/26 01:38:09;;;;;;;26.07;14.17;;;4.50;99.90;;;;;;635205;224;26568;-73
2022/01/26 01:40:35;;;;;;;28.87;14.10;;;4.60;99.90;;;;;;636807;225;26586;-73
2022/01/26 01:43:02;;;;;;;26.53;13.83;;;4.60;99.90;;;;;;636338;226;26591;-73
2022/01/26 01:45:31;;;;;;;24.13;13.50;;;4.50;99.90;;;;;;636143;226;26796;-73
2022/01/26 01:47:58;;;;;;;22.57;13.80;;;4.60;99.90;;;;;;636032;226;26594;-73
2022/01/26 01:50:25;;;;;;;25.60;13.20;;;4.40;99.90;;;;;;635893;226;26775;-73
2022/01/26 01:52:59;;;;;;;29.70;14.17;;;4.30;99.90;;;;;;635887;226;26632;-73
2022/01/26 01:55:25;;;;;;;28.50;13.97;;;4.40;99.90;;;;;;635892;226;27100;-73
2022/01/26 01:57:47;;;;;;;27.07;15.00;;;4.40;99.90;;;;;;635249;226;26557;-73
2022/01/26 02:00:15;;;;;;;24.50;13.00;;;4.40;99.90;;;;;;635547;226;26828;-73
2022/01/26 02:02:42;;;;;;;25.77;13.57;;;4.80;99.90;;;;;;635553;225;26537;-73
2022/01/26 02:05:11;;;;;;;28.33;13.00;;;4.60;99.90;;;;;;635581;226;26550;-73
2022/01/26 02:07:38;;;;;;;26.30;13.03;;;4.60;99.90;;;;;;635663;222;26596;-73
2022/01/26 02:10:06;;;;;;;23.93;12.50;;;4.60;99.90;;;;;;635459;226;26555;-73
2022/01/26 02:12:35;;;;;;;19.47;11.53;;;4.60;99.90;;;;;;635501;226;27209;-73
2022/01/26 02:15:10;;;;;;;25.27;13.87;;;4.60;99.90;;;;;;635239;226;26599;-73
2022/01/26 02:20:33;;;;;;;26.33;13.40;;;4.50;99.90;;;;;;635098;226;26596;-73
2022/01/26 02:51:08;;;;;;;25.77;13.27;;;4.60;99.90;;;;;;636081;224;26572;-73
2022/01/26 02:53:29;;;;;;;27.00;14.40;;;4.60;99.90;;;;;;634797;226;26547;-73
2022/01/26 02:55:51;;;;;;;27.97;15.53;;;4.60;99.90;;;;;;636169;226;26779;-73
2022/01/26 03:01:40;;;;;;;27.40;13.67;;;4.70;99.90;;;;;;635846;226;26839;-73
2022/01/26 03:06:21;;;;;;;24.60;13.77;;;4.40;99.90;;;;;;631058;225;26618;-73
2022/01/26 03:08:50;;;;;;;25.43;13.13;;;4.40;99.90;;;;;;635752;226;26596;-73
2022/01/26 03:11:14;;;;;;;24.33;13.13;;;4.40;99.90;;;;;;635053;226;26785;-73
2022/01/26 03:13:44;;;;;;;24.70;11.93;;;4.50;99.90;;;;;;635456;226;26855;-73
2022/01/26 03:16:14;;;;;;;23.07;12.43;;;4.30;99.90;;;;;;635288;226;26545;-73
2022/01/26 03:18:54;;;;;;;22.57;11.30;;;4.40;99.90;;;;;;635167;226;26558;-73
2022/01/26 03:21:08;;;;;;;23.43;12.00;;;4.30;99.90;;;;;;632145;225;26997;-73
2022/01/26 03:28:43;;;;;;;26.77;14.80;;;4.60;99.90;;;;;;625500;230;26564;-73
2022/01/26 03:31:38;;;;;;;27.10;14.73;;;4.50;99.90;;;;;;625119;230;26793;-73
2022/01/26 03:33:52;;;;;;;31.67;16.90;;;4.60;99.90;;;;;;623549;230;26621;-73
2022/01/26 03:36:11;;;;;;;30.23;16.67;;;4.60;99.90;;;;;;623953;230;26875;-73
2022/01/26 03:38:42;;;;;;;31.83;16.00;;;4.60;99.90;;;;;;624839;230;26617;-73
2022/01/26 03:41:13;;;;;;;32.23;16.60;;;4.70;99.90;;;;;;624541;230;26802;-73
2022/01/26 03:43:26;;;;;;;33.03;17.23;;;4.40;99.90;;;;;;624250;230;26528;-73
2022/01/26 03:45:53;;;;;;;30.97;16.77;;;4.60;99.90;;;;;;625482;229;26784;-72
2022/01/26 03:48:20;;;;;;;34.37;17.00;;;4.60;99.90;;;;;;625499;230;26806;-73
2022/01/26 03:50:48;;;;;;;31.80;17.50;;;4.50;99.90;;;;;;625508;230;26815;-72
2022/01/26 03:53:15;;;;;;;35.13;17.70;;;4.40;99.90;;;;;;625446;230;26548;-73
2022/01/26 03:55:42;;;;;;;37.27;18.37;;;4.50;99.90;;;;;;625530;230;26802;-73
2022/01/26 03:58:10;;;;;;;34.63;17.23;;;4.50;99.90;;;;;;625595;230;26776;-73
2022/01/26 04:00:36;;;;;;;31.97;17.33;;;4.20;99.90;;;;;;625537;230;26810;-73
2022/01/26 04:03:04;;;;;;;37.47;16.53;;;4.20;99.90;;;;;;626984;227;26625;-73
2022/01/26 04:05:31;;;;;;;27.57;15.47;;;4.20;99.90;;;;;;626880;229;26832;-72
2022/01/26 04:08:05;;;;;;;32.40;16.63;;;4.40;99.90;;;;;;626480;229;26552;-73
2022/01/26 04:10:43;;;;;;;26.07;15.47;;;4.30;99.90;;;;;;625813;229;26560;-73
2022/01/26 04:12:55;;;;;;;31.67;16.47;;;4.30;99.90;;;;;;624791;229;26594;-72
2022/01/26 04:15:28;;;;;;;29.60;16.03;;;4.30;99.90;;;;;;626104;229;26597;-73
2022/01/26 04:17:51;;;;;;;34.17;17.77;;;4.30;99.90;;;;;;625624;229;26672;-73
2022/01/26 04:20:20;;;;;;;35.77;17.43;;;4.40;99.90;;;;;;625937;230;26634;-73
2022/01/26 04:22:56;;;;;;;31.50;17.47;;;4.60;99.90;;;;;;625774;227;26658;-73
2022/01/26 04:25:21;;;;;;;31.27;17.37;;;4.70;99.90;;;;;;625672;229;26627;-73
2022/01/26 04:27:48;;;;;;;33.60;17.67;;;4.50;99.90;;;;;;625755;229;26635;-73
2022/01/26 04:30:12;;;;;;;34.30;18.67;;;4.60;99.90;;;;;;625528;230;26606;-73
2022/01/26 04:32:40;;;;;;;37.40;18.50;;;4.60;99.90;;;;;;625792;229;26634;-73
2022/01/26 04:35:09;;;;;;;29.40;15.20;;;4.60;99.90;;;;;;625792;229;26596;-73
2022/01/26 04:38:02;;;;;;;32.90;16.27;;;4.70;99.90;;;;;;625598;230;26603;-73
2022/01/26 04:40:09;;;;;;;26.43;15.30;;;4.80;99.90;;;;;;623465;229;26622;-73
2022/01/26 04:42:46;;;;;;;30.90;15.13;;;4.90;99.90;;;;;;625101;226;26648;-73
2022/01/26 04:45:06;;;;;;;32.17;16.87;;;4.70;99.90;;;;;;624386;230;26843;-73
2022/01/26 04:47:29;;;;;;;34.33;18.03;;;4.80;99.90;;;;;;625447;229;26647;-73
2022/01/26 04:49:56;;;;;;;33.07;19.20;;;4.50;99.90;;;;;;625513;229;26843;-73
2022/01/26 04:52:24;;;;;;;38.47;18.53;;;4.30;99.90;;;;;;625478;230;26587;-73
2022/01/26 04:54:52;;;;;;;33.87;17.63;;;4.40;99.90;;;;;;625401;230;26560;-73
2022/01/26 04:57:20;;;;;;;34.30;16.70;;;4.30;99.90;;;;;;625478;229;26558;-73
2022/01/26 04:59:48;;;;;;;27.23;15.60;;;4.40;99.90;;;;;;625505;229;26563;-73
2022/01/26 05:02:15;;;;;;;27.53;14.57;;;4.40;99.90;;;;;;625412;229;26585;-73
2022/01/26 05:04:42;;;;;;;30.07;14.90;;;4.50;99.90;;;;;;625419;226;26788;-73
2022/01/26 05:07:09;;;;;;;30.67;15.40;;;4.70;99.90;;;;;;625451;230;26810;-73
2022/01/26 05:09:36;;;;;;;33.87;17.10;;;4.50;99.90;;;;;;625468;229;26783;-73
2022/01/26 05:12:04;;;;;;;31.37;17.07;;;4.60;99.90;;;;;;625466;229;26846;-73
2022/01/26 05:14:31;;;;;;;29.93;15.53;;;4.50;99.90;;;;;;626876;227;26847;-73
2022/01/26 05:16:58;;;;;;;27.50;14.37;;;4.20;99.90;;;;;;626824;229;26793;-73
2022/01/26 05:19:26;;;;;;;26.60;14.83;;;4.10;99.90;;;;;;626414;229;26802;-72
2022/01/26 05:21:53;;;;;;;30.53;16.40;;;4.20;99.90;;;;;;626320;229;26879;-73
2022/01/26 05:24:20;;;;;;;28.53;15.47;;;4.20;99.90;;;;;;626059;229;26613;-73
2022/01/26 05:26:47;;;;;;;31.47;15.47;;;4.00;99.90;;;;;;626074;229;26875;-73
2022/01/26 05:29:14;;;;;;;25.50;14.40;;;4.10;99.90;;;;;;626127;230;26604;-73
2022/01/26 05:31:41;;;;;;;27.47;15.17;;;4.10;99.90;;;;;;626034;229;26930;-73
2022/01/26 05:34:09;;;;;;;27.97;15.97;;;4.00;99.90;;;;;;625843;230;26600;-73
2022/01/26 05:36:36;;;;;;;28.30;15.20;;;4.00;99.90;;;;;;625822;229;26938;-72
2022/01/26 05:39:03;;;;;;;28.87;15.37;;;4.00;99.90;;;;;;625776;230;26574;-73
2022/01/26 05:41:30;;;;;;;25.03;13.87;;;4.10;99.90;;;;;;625699;230;26824;-73
2022/01/26 05:43:58;;;;;;;25.70;13.57;;;4.20;99.90;;;;;;625876;230;26611;-73
2022/01/26 05:46:36;;;;;;;20.20;10.60;;;4.20;99.90;;;;;;625774;229;26982;-73
2022/01/26 05:48:56;;;;;;;15.90;10.30;;;4.20;99.90;;;;;;625602;227;26616;-73
2022/01/26 05:51:23;;;;;;;20.53;11.47;;;4.40;99.90;;;;;;625492;230;26584;-73
2022/01/26 05:53:51;;;;;;;19.63;11.93;;;4.20;99.90;;;;;;625509;229;26569;-73
2022/01/26 05:56:18;;;;;;;21.20;11.30;;;4.20;99.90;;;;;;625509;229;26577;-73
2022/01/26 05:58:45;;;;;;;20.13;11.13;;;4.10;99.90;;;;;;625485;229;26556;-73
2022/01/26 06:01:14;;;;;;;22.40;12.17;;;4.00;99.90;;;;;;625480;230;26830;-73
2022/01/26 06:03:40;;;;;;;24.23;13.20;;;4.10;99.90;;;;;;625402;229;26555;-73
2022/01/26 06:06:08;;;;;;;21.87;12.00;;;4.00;99.90;;;;;;625371;229;26833;-73
2022/01/26 06:08:34;;;;;;;21.67;12.17;;;3.90;99.90;;;;;;625344;229;26604;-73
2022/01/26 06:11:02;;;;;;;23.60;12.00;;;4.10;99.90;;;;;;625350;229;26854;-73
2022/01/26 06:13:29;;;;;;;21.97;12.83;;;4.40;99.90;;;;;;625346;230;26800;-73
2022/01/26 06:15:57;;;;;;;27.00;13.13;;;4.00;99.90;;;;;;625422;230;27229;-73
2022/01/26 06:18:24;;;;;;;25.43;13.17;;;4.00;99.90;;;;;;625517;229;27222;-73
2022/01/26 06:20:51;;;;;;;22.80;12.43;;;4.00;99.90;;;;;;625508;229;26567;-72
2022/01/26 06:23:19;;;;;;;22.73;13.70;;;4.00;99.90;;;;;;625487;229;26570;-72
2022/01/26 06:25:46;;;;;;;25.63;12.57;;;3.80;99.90;;;;;;626558;227;26612;-73
2022/01/26 06:28:15;;;;;;;25.67;12.63;;;3.80;99.90;;;;;;626825;229;26644;-72
2022/01/26 06:30:40;;;;;;;20.70;11.37;;;4.30;99.90;;;;;;626445;229;26550;-73
2022/01/26 06:33:09;;;;;;;21.30;12.10;;;4.50;99.90;;;;;;625934;229;26566;-73
2022/01/26 06:35:36;;;;;;;24.53;12.60;;;4.30;99.90;;;;;;626138;229;26604;-71
2022/01/26 06:38:04;;;;;;;23.43;12.00;;;4.30;99.90;;;;;;626139;230;26637;-71
2022/01/26 06:40:31;;;;;;;25.70;12.10;;;4.40;99.90;;;;;;626089;226;26637;-71
2022/01/26 06:43:03;;;;;;;23.17;13.03;;;4.50;99.90;;;;;;626043;230;26856;-71
2022/01/26 06:45:31;;;;;;;23.00;12.57;;;4.50;99.90;;;;;;625478;228;26843;-71
2022/01/26 06:48:27;;;;;;;23.97;12.03;;;4.50;99.90;;;;;;625499;230;26829;-71
2022/01/26 06:50:32;;;;;;;23.73;12.57;;;4.30;99.90;;;;;;623864;228;26607;-71
2022/01/26 06:53:00;;;;;;;25.77;12.30;;;4.40;99.90;;;;;;625961;230;26623;-71
2022/01/26 06:55:28;;;;;;;27.90;13.27;;;4.70;99.90;;;;;;625890;225;26602;-71
2022/01/26 06:57:56;;;;;;;27.90;14.50;;;4.90;99.90;;;;;;625900;229;26578;-71
2022/01/26 07:00:24;;;;;;;26.00;12.73;;;4.80;99.90;;;;;;627177;225;26572;-71
2022/01/26 07:02:54;;;;;;;25.77;13.43;;;4.80;99.90;;;;;;628742;226;26600;-71
2022/01/26 07:05:18;;;;;;;32.07;13.37;;;4.70;99.90;;;;;;633257;225;26586;-71
2022/01/26 07:07:45;;;;;;;25.80;13.37;;;4.90;99.90;;;;;;626424;226;26783;-71
2022/01/26 07:10:12;;;;;;;24.53;13.03;;;4.60;99.90;;;;;;625886;228;26555;-73
2022/01/26 07:12:40;;;;;;;29.10;13.30;;;4.80;99.90;;;;;;629243;226;26788;-73
2022/01/26 07:21:00;;;;;;;22.50;13.10;;;4.50;99.90;;;;;;628447;225;26608;-73
2022/01/26 07:22:42;;;;;;;28.10;13.67;;;4.50;99.90;;;;;;630729;225;26612;-72
2022/01/26 07:25:10;;;;;;;26.10;14.17;;;4.40;99.90;;;;;;629354;225;26619;-73
2022/01/26 07:27:38;;;;;;;26.53;12.90;;;4.50;99.90;;;;;;627973;225;26625;-71
2022/01/26 07:30:07;;;;;;;27.10;14.00;;;4.50;99.90;;;;;;627140;226;26595;-70
2022/01/26 07:32:35;;;;;;;22.87;11.57;;;4.50;99.90;;;;;;626867;224;26631;-71
2022/01/26 07:35:00;;;;;;;26.63;13.43;;;4.40;99.90;;;;;;625963;228;26966;-71
2022/01/26 07:37:27;;;;;;;26.13;13.67;;;4.50;99.90;;;;;;627101;227;26555;-71
2022/01/26 07:40:04;;;;;;;30.80;14.27;;;4.50;99.90;;;;;;627207;229;26943;-71
2022/01/26 07:42:28;;;;;;;26.87;13.07;;;4.40;99.90;;;;;;626680;229;26529;-71
2022/01/26 07:44:55;;;;;;;27.70;13.53;;;4.40;99.90;;;;;;626932;228;26533;-71
2022/01/26 07:47:23;;;;;;;29.90;14.47;;;4.50;99.90;;;;;;626548;229;26504;-72
2022/01/26 07:49:54;;;;;;;27.47;13.90;;;4.80;99.90;;;;;;626463;229;26516;-72
2022/01/26 07:52:17;;;;;;;28.03;14.47;;;4.70;99.90;;;;;;625836;229;26563;-72
2022/01/26 07:54:48;;;;;;;27.30;13.17;;;4.90;99.90;;;;;;626290;225;26584;-72
2022/01/26 07:57:15;;;;;;;23.27;12.33;;;5.10;99.90;;;;;;631549;225;26583;-72
2022/01/26 07:59:43;;;;;;;29.87;14.50;;;4.60;99.90;;;;;;631283;223;26598;-72
2022/01/26 08:02:11;;;;;;;27.67;13.20;;;4.40;99.90;;;;;;630592;226;26596;-72
2022/01/26 08:04:39;;;;;;;27.23;13.90;;;4.60;99.90;;;;;;627784;226;26613;-72
2022/01/26 08:07:07;;;;;;;27.40;14.23;;;4.80;99.90;;;;;;629908;226;26630;-71
2022/01/26 08:09:34;;;;;;;31.23;14.13;;;4.90;99.90;;;;;;626708;226;26542;-72
2022/01/26 08:12:01;;;;;;;25.43;13.67;;;4.80;99.90;;;;;;626721;228;26818;-72
2022/01/26 08:14:28;;;;;;;29.63;14.17;;;4.50;99.90;;;;;;627707;229;26822;-72
2022/01/26 08:16:56;;;;;;;32.53;14.90;;;4.20;99.90;;;;;;626299;228;26547;-72
2022/01/26 08:19:23;;;;;;;27.53;13.90;;;4.20;99.90;;;;;;628229;229;26774;-72
2022/01/26 08:21:51;;;;;;;28.20;14.30;;;4.30;99.90;;;;;;625493;228;26572;-72
2022/01/26 08:24:19;;;;;;;27.90;13.57;;;4.20;99.90;;;;;;631477;225;26588;-72
2022/01/26 08:26:49;;;;;;;28.23;13.97;;;4.20;99.90;;;;;;628928;225;26586;-71
2022/01/26 08:29:24;;;;;;;24.77;13.97;;;4.10;99.90;;;;;;626869;223;26558;-71
2022/01/26 08:31:45;;;;;;;26.30;14.43;;;4.10;99.90;;;;;;625819;229;26552;-72
2022/01/26 08:34:13;;;;;;;31.33;15.03;;;4.30;99.90;;;;;;628833;223;26588;-72
2022/01/26 08:36:41;;;;;;;29.27;13.27;;;4.40;99.90;;;;;;628712;229;26584;-73
2022/01/26 08:39:08;;;;;;;33.13;14.90;;;4.40;99.90;;;;;;626142;229;26520;-73
2022/01/26 08:41:35;;;;;;;27.70;13.97;;;4.20;99.90;;;;;;636967;225;26627;-73
2022/01/26 08:44:02;;;;;;;33.63;15.10;;;4.20;99.90;;;;;;628830;229;27251;-74
2022/01/26 08:46:29;;;;;;;31.43;15.00;;;4.40;99.90;;;;;;628813;228;26577;-74
2022/01/26 08:48:57;;;;;;;28.80;14.60;;;5.00;99.90;;;;;;636782;223;26863;-72
2022/01/26 08:51:24;;;;;;;29.33;14.20;;;5.00;99.90;;;;;;627175;228;26579;-72
2022/01/26 08:53:51;;;;;;;27.50;13.67;;;4.70;99.90;;;;;;629848;227;26763;-72
2022/01/26 08:56:18;;;;;;;25.63;13.37;;;4.60;99.90;;;;;;629753;228;26592;-72
2022/01/26 08:58:46;;;;;;;29.20;13.83;;;4.70;99.90;;;;;;627206;228;26852;-72
2022/01/26 09:01:13;;;;;;;22.77;12.83;;;5.30;99.90;;;;;;636458;225;26573;-72
2022/01/26 09:03:41;;;;;;;26.53;13.27;;;5.00;99.90;;;;;;626977;225;26909;-73
2022/01/26 09:06:07;;;;;;;22.43;12.03;;;5.00;99.90;;;;;;627305;228;26592;-72
2022/01/26 09:08:34;;;;;;;23.53;13.60;;;5.20;99.90;;;;;;629006;228;27203;-72
2022/01/26 09:11:03;;;;;;;24.30;12.47;;;4.90;99.90;;;;;;626463;226;26611;-73
2022/01/26 09:13:31;;;;;;;23.47;12.63;;;4.70;99.90;;;;;;628501;228;26545;-73
2022/01/26 09:15:58;;;;;;;29.10;14.33;;;5.20;99.90;;;;;;626737;228;26593;-73
2022/01/26 09:18:39;;;;;;;24.17;13.07;;;5.40;99.90;;;;;;627335;228;26543;-73
2022/01/26 09:20:58;;;;;;;23.37;12.40;;;5.40;99.90;;;;;;635236;225;26813;-73
2022/01/26 09:23:25;;;;;;;27.23;13.40;;;5.20;99.90;;;;;;630345;225;26539;-73
2022/01/26 09:25:52;;;;;;;25.17;12.70;;;5.30;99.90;;;;;;635144;222;26801;-73
2022/01/26 09:28:21;;;;;;;23.17;12.00;;;5.40;99.90;;;;;;630277;226;26621;-72
2022/01/26 09:30:47;;;;;;;19.33;11.50;;;5.20;99.90;;;;;;630352;226;26857;-73
2022/01/26 09:33:14;;;;;;;22.93;13.50;;;4.80;99.90;;;;;;628624;228;26584;-72
2022/01/26 09:35:41;;;;;;;19.53;11.47;;;4.60;99.90;;;;;;626495;225;26757;-72
2022/01/26 09:38:09;;;;;;;23.00;12.37;;;4.50;99.90;;;;;;631798;225;26603;-73
2022/01/26 09:40:37;;;;;;;24.90;13.03;;;4.70;99.90;;;;;;626658;228;26557;-72
2022/01/26 09:43:04;;;;;;;25.57;11.77;;;4.70;99.90;;;;;;627080;228;26596;-72
2022/01/26 09:45:34;;;;;;;19.93;11.03;;;4.70;99.90;;;;;;632536;226;26609;-73
2022/01/26 09:47:59;;;;;;;20.77;11.30;;;4.50;99.90;;;;;;630086;225;26841;-72
2022/01/26 09:50:26;;;;;;;20.97;12.67;;;4.70;99.90;;;;;;634437;225;26530;-72
2022/01/26 09:52:55;;;;;;;20.83;12.33;;;4.70;99.90;;;;;;627187;229;26905;-72
2022/01/26 09:55:20;;;;;;;22.77;13.60;;;4.80;99.90;;;;;;627737;225;26599;-72
2022/01/26 09:57:48;;;;;;;21.93;12.60;;;4.80;99.90;;;;;;630275;225;26816;-73
2022/01/26 10:00:17;;;;;;;20.63;12.20;;;5.20;99.90;;;;;;636112;224;26564;-72
2022/01/26 10:02:43;;;;;;;20.10;12.10;;;5.20;99.90;;;;;;635467;226;26616;-73
2022/01/26 10:05:11;;;;;;;18.73;12.13;;;5.20;99.90;;;;;;628407;228;26600;-73
2022/01/26 10:07:47;;;;;;;23.17;12.40;;;5.20;99.90;;;;;;626937;226;26787;-73
2022/01/26 10:15:26;;;;;;;24.37;14.17;;;4.90;99.90;;;;;;632462;226;26614;-72
2022/01/26 10:15:50;;;;;;;19.80;12.73;;;4.90;99.90;;;;;;624388;229;26641;-72
2022/01/26 10:18:14;;;;;;;24.77;14.00;;;5.00;99.90;;;;;;625404;225;26793;-72
2022/01/26 10:20:40;;;;;;;21.73;12.37;;;4.70;99.90;;;;;;626096;229;26790;-72
2022/01/26 10:23:07;;;;;;;23.37;12.90;;;4.40;99.90;;;;;;627997;228;26523;-72
2022/01/26 10:25:34;;;;;;;22.47;13.33;;;4.30;99.90;;;;;;629406;228;26503;-72
2022/01/26 10:28:01;;;;;;;20.63;12.53;;;4.20;99.90;;;;;;629159;228;26518;-72
2022/01/26 10:30:28;;;;;;;16.87;10.10;;;4.40;99.90;;;;;;627181;228;26803;-72
2022/01/26 10:32:56;;;;;;;17.97;10.60;;;4.30;99.90;;;;;;627965;224;26590;-72
2022/01/26 10:35:23;;;;;;;19.03;11.53;;;4.60;99.90;;;;;;626180;228;26788;-72
2022/01/26 10:37:52;;;;;;;17.97;10.90;;;4.60;99.90;;;;;;628445;229;26576;-72
2022/01/26 10:40:21;;;;;;;15.80;10.63;;;4.80;99.90;;;;;;625433;223;26524;-75
2022/01/26 10:42:55;;;;;;;16.93;9.50;;;5.20;99.90;;;;;;626678;229;26569;-75
2022/01/26 10:45:31;;;;;;;16.83;9.73;;;5.70;99.90;;;;;;628767;228;26609;-75
2022/01/26 10:47:57;;;;;;;15.57;10.57;;;5.70;99.90;;;;;;625966;229;26523;-76
2022/01/26 10:50:32;;;;;;;16.33;9.53;;;5.80;99.90;;;;;;627187;229;27059;-75
2022/01/26 10:53:05;;;;;;;11.00;9.10;;;5.30;99.90;;;;;;631569;226;26597;-75
2022/01/26 10:55:33;;;;;;;11.90;8.20;;;5.20;99.90;;;;;;629337;225;26603;-76
2022/01/26 10:58:00;;;;;;;15.03;7.87;;;5.10;99.90;;;;;;626795;225;26838;-75
2022/01/26 11:00:27;;;;;;;14.23;7.53;;;5.00;99.90;;;;;;627954;228;26567;-76
2022/01/26 11:02:57;;;;;;;10.10;7.50;;;4.90;99.90;;;;;;628258;226;26614;-75
2022/01/26 11:05:23;;;;;;;9.50;6.23;;;4.60;99.90;;;;;;627554;229;26579;-76
2022/01/26 11:07:50;;;;;;;13.00;8.07;;;4.60;99.90;;;;;;626020;223;26523;-75
2022/01/26 11:10:18;;;;;;;10.27;7.33;;;4.60;99.90;;;;;;630096;226;26835;-75
2022/01/26 11:12:44;;;;;;;11.20;7.53;;;4.60;99.90;;;;;;633462;224;26594;-76
2022/01/26 11:15:12;;;;;;;9.40;6.37;;;4.50;99.90;;;;;;628687;228;26855;-74
2022/01/26 11:17:40;;;;;;;9.50;7.10;;;4.50;99.90;;;;;;626129;229;26558;-75
2022/01/26 11:20:16;;;;;;;11.90;7.43;;;4.30;99.90;;;;;;625912;229;26538;-76
2022/01/26 11:22:56;;;;;;;10.50;7.13;;;4.30;99.90;;;;;;625507;229;26865;-76
2022/01/26 11:25:23;;;;;;;9.80;7.00;;;4.40;99.90;;;;;;625669;230;26586;-75
2022/01/26 11:27:50;;;;;;;9.77;6.97;;;4.20;99.90;;;;;;625653;228;26603;-76
2022/01/26 11:30:25;;;;;;;8.53;6.63;;;4.00;99.90;;;;;;625443;228;26619;-75
2022/01/26 11:32:55;;;;;;;10.00;7.27;;;3.90;99.90;;;;;;625401;229;26623;-76
2022/01/26 11:35:21;;;;;;;11.97;8.20;;;3.80;99.90;;;;;;626071;229;26803;-75
2022/01/26 11:37:58;;;;;;;12.50;9.07;;;3.90;99.90;;;;;;626148;229;26576;-75
2022/01/26 11:45:35;;;;;;;14.10;9.10;;;3.60;99.90;;;;;;624910;228;26614;-76
2022/01/26 11:48:07;;;;;;;13.43;8.63;;;3.60;99.90;;;;;;625462;229;26588;-75
2022/01/26 11:50:32;;;;;;;14.70;9.23;;;3.50;99.90;;;;;;625267;229;26531;-76
2022/01/26 11:53:01;;;;;;;13.73;7.90;;;3.60;99.90;;;;;;627277;225;27233;-75
2022/01/26 11:55:32;;;;;;;12.30;8.30;;;3.60;99.90;;;;;;626550;224;26543;-76
2022/01/26 11:57:56;;;;;;;13.23;7.90;;;3.60;99.90;;;;;;628346;226;27005;-76
2022/01/26 12:00:35;;;;;;;14.37;8.43;;;3.60;99.90;;;;;;626915;226;26551;-76
2022/01/26 12:02:58;;;;;;;13.03;9.13;;;3.60;99.90;;;;;;625078;229;26574;-76
2022/01/26 12:05:25;;;;;;;11.47;7.53;;;3.50;99.90;;;;;;625462;225;27206;-75
2022/01/26 12:07:52;;;;;;;14.23;7.77;;;3.40;99.90;;;;;;627514;226;26587;-75
2022/01/26 12:10:24;;;;;;;13.77;8.43;;;3.50;99.90;;;;;;633971;225;26523;-75
2022/01/26 12:12:47;;;;;;;12.17;7.83;;;3.50;99.90;;;;;;627817;225;26604;-75
2022/01/26 12:15:17;;;;;;;13.53;8.17;;;3.60;99.90;;;;;;625225;229;26614;-75
2022/01/26 12:17:56;;;;;;;17.63;9.53;;;3.70;99.90;;;;;;628581;227;26587;-75
2022/01/26 12:32:07;;;;;;;14.50;8.20;;;3.70;99.90;;;;;;625488;226;26534;-75
2022/01/26 12:33:17;;;;;;;9.77;6.87;;;3.30;99.90;;;;;;626132;228;26777;-74
2022/01/26 12:35:48;;;;;;;11.73;7.50;;;3.30;99.90;;;;;;627277;228;26724;-75
2022/01/26 12:38:14;;;;;;;12.87;7.93;;;3.40;99.90;;;;;;628611;228;26534;-75
2022/01/26 12:43:11;;;;;;;14.90;8.43;;;3.20;99.90;;;;;;627361;228;26775;-74
2022/01/26 12:45:38;;;;;;;11.37;7.67;;;3.50;99.90;;;;;;627522;225;26522;-75
2022/01/26 12:48:05;;;;;;;10.43;6.80;;;3.90;99.90;;;;;;635208;225;26806;-75
2022/01/26 12:50:33;;;;;;;12.13;7.63;;;4.20;99.90;;;;;;627556;225;26599;-75
2022/01/26 12:53:01;;;;;;;9.50;6.47;;;3.60;99.90;;;;;;632743;226;26606;-75
2022/01/26 12:55:29;;;;;;;16.53;8.57;;;3.60;99.90;;;;;;630443;226;26590;-75
2022/01/26 12:57:56;;;;;;;13.63;8.80;;;3.60;99.90;;;;;;633428;226;26896;-74
2022/01/26 13:00:25;;;;;;;10.60;7.87;;;3.70;99.90;;;;;;627260;225;26850;-74
2022/01/26 13:02:52;;;;;;;15.47;8.20;;;3.90;99.90;;;;;;639458;225;26808;-74
2022/01/26 13:05:24;;;;;;;13.60;7.60;;;3.90;99.90;;;;;;632769;225;26954;-74
2022/01/26 13:07:58;;;;;;;12.90;7.87;;;3.90;99.90;;;;;;626685;229;26580;-74
2022/01/26 13:10:25;;;;;;;14.10;8.37;;;3.90;99.90;;;;;;631270;225;26874;-73
2022/01/26 13:12:52;;;;;;;15.20;8.30;;;3.70;99.90;;;;;;626653;229;26567;-74
2022/01/26 13:15:24;;;;;;;17.80;8.67;;;3.60;99.90;;;;;;629578;225;26833;-73
2022/01/26 13:17:55;;;;;;;12.27;7.80;;;3.60;99.90;;;;;;627856;225;26602;-73
2022/01/26 13:20:33;;;;;;;12.10;6.93;;;3.70;99.90;;;;;;627792;226;26592;-73
2022/01/26 13:25:42;;;;;;;13.27;8.20;;;3.70;99.90;;;;;;627035;229;26766;-75
2022/01/26 13:28:11;;;;;;;15.93;8.20;;;4.10;99.90;;;;;;625296;229;26538;-73
2022/01/26 13:30:42;;;;;;;13.07;7.90;;;4.20;99.90;;;;;;624582;229;26544;-73
2022/01/26 13:33:13;;;;;;;14.33;7.50;;;3.90;99.90;;;;;;627814;228;26854;-73
2022/01/26 13:38:09;;;;;;;17.60;7.47;;;3.40;99.90;;;;;;627912;225;26600;-73
2022/01/26 13:40:51;;;;;;;15.90;8.67;;;3.30;99.90;;;;;;636208;225;26629;-73
2022/01/26 13:46:25;;;;;;;14.17;8.30;;;3.50;99.90;;;;;;632523;226;26585;-73
2022/01/26 13:51:34;;;;;;;15.40;8.50;;;4.00;99.90;;;;;;623476;229;26628;-72
2022/01/26 13:53:57;;;;;;;16.63;9.17;;;4.20;99.90;;;;;;626752;226;26598;-72
2022/01/26 13:56:35;;;;;;;20.47;10.73;;;4.30;99.90;;;;;;633469;226;26566;-72
2022/01/26 13:58:58;;;;;;;22.67;10.63;;;4.30;99.90;;;;;;633002;226;26585;-72
2022/01/26 14:01:18;;;;;;;19.33;10.20;;;4.30;99.90;;;;;;630085;226;26612;-72
2022/01/26 14:03:45;;;;;;;25.40;11.20;;;4.60;99.90;;;;;;631772;226;26581;-72
2022/01/26 14:06:10;;;;;;;25.40;12.00;;;4.60;99.90;;;;;;634007;224;26631;-72
2022/01/26 14:08:37;;;;;;;23.47;10.73;;;4.60;99.90;;;;;;630215;226;26586;-72
2022/01/26 14:11:04;;;;;;;22.13;11.63;;;4.60;99.90;;;;;;632263;226;26857;-72
2022/01/26 14:13:34;;;;;;;23.40;11.23;;;4.00;99.90;;;;;;630369;226;26843;-72
2022/01/26 14:16:00;;;;;;;22.93;10.57;;;4.00;99.90;;;;;;628321;226;26603;-71